Calypso — IYQT — position and weather

sailwx.info

Track history (hours):
 
Tides and Currents Weather Stations Pressure Air Temp Water Temp Dewpoint Dewpoint Depression Visibility Wind Speed Wind Dir Waves Ship Positions

Calypso

Last reported at 2017-Feb-21 07:28 UTC. Time now 2017-Feb-21 07:59 UTC.
Position N 38°28' E 014°57'.

Length 32 m; draft 4.2 m.

Type: High speed craft. MMSI: 247143200.

Date/timePositionNaut miles runAvg speedWind from/ knotsBaromVisibWave heightAir tempDewpointWater temp
2017-Feb-21 07:28N 38°28' E 014°57'2121.1
2017-Feb-21 06:27N 38°47' E 015°11'2023.0
2017-Feb-21 05:33N 38°27' E 015°16'1413.4
2017-Feb-21 04:32N 38°13' E 015°15'0 0.0
2017-Feb-20 17:33N 38°13' E 015°15'1916.0
2017-Feb-20 16:24N 38°27' E 014°59'1618.6
2017-Feb-20 15:33N 38°41' E 015°07'2 2.4
2017-Feb-20 14:33N 38°39' E 015°05'1615.6
2017-Feb-20 13:33N 38°23' E 015°06'1212.3
2017-Feb-20 12:33N 38°13' E 015°14'1 0.6
2017-Feb-20 11:33N 38°13' E 015°15'2018.3
2017-Feb-20 10:28N 38°29' E 014°59'3 0.9
2017-Feb-20 07:24N 38°31' E 014°58'1315.8
2017-Feb-20 06:34N 38°21' E 015°08'9 9.1
2017-Feb-20 05:33N 38°13' E 015°15'  
2017-Feb-17 19:11N 38°13' E 015°15'3 4.8
2017-Feb-17 18:34N 38°15' E 015°18'1514.8
2017-Feb-17 17:33N 38°12' E 015°37'2 0.1
2017-Feb-16 14:17N 38°11' E 015°34'5 6.6
2017-Feb-16 13:33N 38°15' E 015°38'1918.6
2017-Feb-16 12:33N 38°13' E 015°15'0 0.0
2017-Feb-16 11:33N 38°13' E 015°15'0 0.0
2017-Feb-16 10:33N 38°13' E 015°15'0 0.0
2017-Feb-16 09:33N 38°13' E 015°15'0 0.1
2017-Feb-16 08:33N 38°13' E 015°14'2017.7
2017-Feb-16 07:25N 38°28' E 014°58'2121.3
2017-Feb-16 06:25N 38°46' E 015°13'2023.3
2017-Feb-16 05:33N 38°26' E 015°16'1312.8
2017-Feb-16 04:33N 38°13' E 015°14'2 0.1
2017-Feb-15 12:33N 38°14' E 015°17'2 2.1
2017-Feb-15 11:33N 38°13' E 015°15'0 0.0
2017-Feb-15 10:34N 38°13' E 015°15'0 0.3
2017-Feb-15 09:33N 38°13' E 015°15'0 0.3
2017-Feb-15 08:33N 38°13' E 015°15'2118.9
2017-Feb-15 07:27N 38°28' E 014°58'2222.6
2017-Feb-15 06:30N 38°47' E 015°11'2122.6
2017-Feb-15 05:34N 38°26' E 015°15'1312.8
2017-Feb-15 04:32N 38°13' E 015°14'20 1.4
2017-Feb-14 13:33N 38°28' E 014°57'2019.8
2017-Feb-14 12:33N 38°16' E 015°17'3 3.0
2017-Feb-14 11:33N 38°13' E 015°15'0 0.0
2017-Feb-14 10:33N 38°13' E 015°15'0 0.3
2017-Feb-14 09:33N 38°13' E 015°15'0 0.3
2017-Feb-14 08:34N 38°13' E 015°14'2020.0
2017-Feb-14 07:33N 38°28' E 014°58'15 7.5
2017-Feb-14 05:33N 38°26' E 015°17'1313.4
2017-Feb-14 04:33N 38°13' E 015°14'0 0.0
2017-Feb-13 18:07N 38°13' E 015°14'2 0.4
2017-Feb-13 12:33N 38°14' E 015°17'2 1.7
2017-Feb-13 11:20N 38°13' E 015°15'0 0.0
2017-Feb-13 10:31N 38°13' E 015°15'0 0.0
2017-Feb-13 09:33N 38°13' E 015°15'0 0.1
2017-Feb-13 08:34N 38°13' E 015°14'2017.1
2017-Feb-13 07:23N 38°28' E 014°58'2321.9
2017-Feb-13 06:20N 38°47' E 015°14'2127.7
2017-Feb-13 05:34N 38°26' E 015°17'1313.1
2017-Feb-13 04:34N 38°13' E 015°15'0 0.0
2017-Feb-12 17:33N 38°13' E 015°15'21 2.1
2017-Feb-12 07:19N 38°30' E 014°59'1012.5
2017-Feb-12 06:33N 38°22' E 015°05'1211.8
2017-Feb-12 05:33N 38°13' E 015°15'0 0.0
2017-Feb-11 17:33N 38°13' E 015°15'5 1.1
2017-Feb-11 13:19N 38°18' E 015°15'5 6.3
2017-Feb-11 12:33N 38°13' E 015°15'1 0.6
2017-Feb-11 11:33N 38°13' E 015°15'  
Track history (hours):
 
Tides and Currents Weather Stations Pressure Air Temp Water Temp Dewpoint Dewpoint Depression Visibility Wind Speed Wind Dir Waves Ship Positions

Calypso

Last reported at 2017-Feb-21 07:28 UTC. Time now 2017-Feb-21 07:59 UTC.
Position N 38°28' E 014°57'.

Length 32 m; draft 4.2 m.

Type: High speed craft. MMSI: 247143200.

Date/timePositionNaut miles runAvg speedWind from/ knotsBaromVisibWave heightAir tempDewpointWater temp
2017-Feb-21 07:28N 38°28' E 014°57'2121.1
2017-Feb-21 06:27N 38°47' E 015°11'2023.0
2017-Feb-21 05:33N 38°27' E 015°16'1413.4
2017-Feb-21 04:32N 38°13' E 015°15'0 0.0
2017-Feb-20 17:33N 38°13' E 015°15'1916.0
2017-Feb-20 16:24N 38°27' E 014°59'1618.6
2017-Feb-20 15:33N 38°41' E 015°07'2 2.4
2017-Feb-20 14:33N 38°39' E 015°05'1615.6
2017-Feb-20 13:33N 38°23' E 015°06'1212.3
2017-Feb-20 12:33N 38°13' E 015°14'1 0.6
2017-Feb-20 11:33N 38°13' E 015°15'2018.3
2017-Feb-20 10:28N 38°29' E 014°59'3 0.9
2017-Feb-20 07:24N 38°31' E 014°58'1315.8
2017-Feb-20 06:34N 38°21' E 015°08'9 9.1
2017-Feb-20 05:33N 38°13' E 015°15'  
2017-Feb-17 19:11N 38°13' E 015°15'3 4.8
2017-Feb-17 18:34N 38°15' E 015°18'1514.8
2017-Feb-17 17:33N 38°12' E 015°37'2 0.1
2017-Feb-16 14:17N 38°11' E 015°34'5 6.6
2017-Feb-16 13:33N 38°15' E 015°38'1918.6
2017-Feb-16 12:33N 38°13' E 015°15'0 0.0
2017-Feb-16 11:33N 38°13' E 015°15'0 0.0
2017-Feb-16 10:33N 38°13' E 015°15'0 0.0
2017-Feb-16 09:33N 38°13' E 015°15'0 0.1
2017-Feb-16 08:33N 38°13' E 015°14'2017.7
2017-Feb-16 07:25N 38°28' E 014°58'2121.3
2017-Feb-16 06:25N 38°46' E 015°13'2023.3
2017-Feb-16 05:33N 38°26' E 015°16'1312.8
2017-Feb-16 04:33N 38°13' E 015°14'2 0.1
2017-Feb-15 12:33N 38°14' E 015°17'2 2.1
2017-Feb-15 11:33N 38°13' E 015°15'0 0.0
2017-Feb-15 10:34N 38°13' E 015°15'0 0.3
2017-Feb-15 09:33N 38°13' E 015°15'0 0.3
2017-Feb-15 08:33N 38°13' E 015°15'2118.9
2017-Feb-15 07:27N 38°28' E 014°58'2222.6
2017-Feb-15 06:30N 38°47' E 015°11'2122.6
2017-Feb-15 05:34N 38°26' E 015°15'1312.8
2017-Feb-15 04:32N 38°13' E 015°14'20 1.4
2017-Feb-14 13:33N 38°28' E 014°57'2019.8
2017-Feb-14 12:33N 38°16' E 015°17'3 3.0
2017-Feb-14 11:33N 38°13' E 015°15'0 0.0
2017-Feb-14 10:33N 38°13' E 015°15'0 0.3
2017-Feb-14 09:33N 38°13' E 015°15'0 0.3
2017-Feb-14 08:34N 38°13' E 015°14'2020.0
2017-Feb-14 07:33N 38°28' E 014°58'15 7.5
2017-Feb-14 05:33N 38°26' E 015°17'1313.4
2017-Feb-14 04:33N 38°13' E 015°14'0 0.0
2017-Feb-13 18:07N 38°13' E 015°14'2 0.4
2017-Feb-13 12:33N 38°14' E 015°17'2 1.7
2017-Feb-13 11:20N 38°13' E 015°15'0 0.0
2017-Feb-13 10:31N 38°13' E 015°15'0 0.0
2017-Feb-13 09:33N 38°13' E 015°15'0 0.1
2017-Feb-13 08:34N 38°13' E 015°14'2017.1
2017-Feb-13 07:23N 38°28' E 014°58'2321.9
2017-Feb-13 06:20N 38°47' E 015°14'2127.7
2017-Feb-13 05:34N 38°26' E 015°17'1313.1
2017-Feb-13 04:34N 38°13' E 015°15'0 0.0
2017-Feb-12 17:33N 38°13' E 015°15'21 2.1
2017-Feb-12 07:19N 38°30' E 014°59'1012.5
2017-Feb-12 06:33N 38°22' E 015°05'1211.8
2017-Feb-12 05:33N 38°13' E 015°15'0 0.0
2017-Feb-11 17:33N 38°13' E 015°15'5 1.1
2017-Feb-11 13:19N 38°18' E 015°15'5 6.3
2017-Feb-11 12:33N 38°13' E 015°15'1 0.6
2017-Feb-11 11:33N 38°13' E 015°15'  

Dump ship's entire track history